createdAt,value
2024-03-15T00:01:50.232Z,17.39
2024-03-15T00:04:16.632Z,17.37
2024-03-15T00:06:43.017Z,17.32
2024-03-15T00:09:09.429Z,17.31
2024-03-15T00:11:35.732Z,17.23
2024-03-15T00:14:02.068Z,17.24
2024-03-15T00:16:28.379Z,17.15
2024-03-15T00:18:54.745Z,17.28
2024-03-15T00:21:21.111Z,17.15
2024-03-15T00:23:47.439Z,17.09
2024-03-15T00:26:13.745Z,17.00
2024-03-15T00:28:40.096Z,17.02
2024-03-15T00:31:06.433Z,17.22
2024-03-15T00:33:32.775Z,17.10
2024-03-15T00:35:59.126Z,16.99
2024-03-15T00:38:25.432Z,17.01
2024-03-15T00:40:51.759Z,17.06
2024-03-15T00:43:18.140Z,17.05
2024-03-15T00:45:44.508Z,17.00
2024-03-15T00:48:10.987Z,16.96
2024-03-15T00:50:37.462Z,17.11
2024-03-15T00:53:03.774Z,17.13
2024-03-15T00:55:30.094Z,17.13
2024-03-15T00:57:56.472Z,17.09
2024-03-15T01:00:22.866Z,17.16
2024-03-15T01:02:49.227Z,17.23
2024-03-15T01:05:15.589Z,17.10
2024-03-15T01:07:41.919Z,17.17
2024-03-15T01:10:08.235Z,17.24
2024-03-15T01:12:34.619Z,17.14
2024-03-15T01:15:01.000Z,17.19
2024-03-15T01:17:27.342Z,17.19
2024-03-15T01:19:53.696Z,17.25
2024-03-15T01:22:20.009Z,17.16
2024-03-15T01:24:46.434Z,17.16
2024-03-15T01:27:12.907Z,17.25
2024-03-15T01:29:39.282Z,17.36
2024-03-15T01:32:05.638Z,17.35
2024-03-15T01:34:32.029Z,17.33
2024-03-15T01:36:58.341Z,17.31
2024-03-15T01:39:24.715Z,17.20
2024-03-15T01:41:51.045Z,17.21
2024-03-15T01:44:17.365Z,17.28
2024-03-15T01:46:43.695Z,17.20
2024-03-15T01:49:10.167Z,17.12
2024-03-15T01:51:36.591Z,17.22
2024-03-15T01:54:02.936Z,17.20
2024-03-15T01:56:29.270Z,17.22
2024-03-15T01:58:55.622Z,17.11
2024-03-15T02:01:21.958Z,17.16
2024-03-15T02:03:48.560Z,17.23
2024-03-15T02:06:15.002Z,17.15
2024-03-15T02:08:41.378Z,17.13
2024-03-15T02:11:07.861Z,17.34
2024-03-15T02:13:34.211Z,17.14
2024-03-15T02:16:00.546Z,17.32
2024-03-15T02:18:26.904Z,17.31
2024-03-15T02:20:53.235Z,17.20
2024-03-15T02:23:19.547Z,17.20
2024-03-15T02:25:45.968Z,17.17
2024-03-15T02:28:12.322Z,17.10
2024-03-15T02:30:38.737Z,17.17
2024-03-15T02:33:05.424Z,17.26
2024-03-15T02:35:32.881Z,17.22
2024-03-15T02:37:59.725Z,17.17
2024-03-15T02:40:26.192Z,17.28
2024-03-15T02:42:52.634Z,17.14
2024-03-15T02:45:19.131Z,17.19
2024-03-15T02:47:45.513Z,17.18
2024-03-15T02:50:11.838Z,17.05
2024-03-15T02:52:38.225Z,17.06
2024-03-15T02:55:04.859Z,17.04
2024-03-15T02:57:31.207Z,17.10
2024-03-15T02:59:57.522Z,17.31
2024-03-15T03:02:23.847Z,17.08
2024-03-15T03:04:50.163Z,17.05
2024-03-15T03:07:16.500Z,16.99
2024-03-15T03:09:42.948Z,17.02
2024-03-15T03:12:09.287Z,17.04
2024-03-15T03:14:35.614Z,17.09
2024-03-15T03:17:02.046Z,17.14
2024-03-15T03:19:28.362Z,17.12
2024-03-15T03:21:54.804Z,17.06
2024-03-15T03:24:21.262Z,17.31
2024-03-15T03:26:47.599Z,17.29
2024-03-15T03:29:13.912Z,17.15
2024-03-15T03:31:40.404Z,17.11
2024-03-15T03:34:06.824Z,17.13
2024-03-15T03:36:33.195Z,17.06
2024-03-15T03:38:59.724Z,17.06
2024-03-15T03:41:26.029Z,17.15
2024-03-15T03:43:52.339Z,17.14
2024-03-15T03:46:18.767Z,17.03
2024-03-15T03:48:45.112Z,17.11
2024-03-15T03:51:11.470Z,17.04
2024-03-15T03:53:37.926Z,16.97
2024-03-15T03:56:04.254Z,16.80
2024-03-15T03:58:30.571Z,16.90
2024-03-15T04:00:57.059Z,16.90
2024-03-15T04:03:23.497Z,17.00
2024-03-15T04:05:49.835Z,16.90
2024-03-15T04:08:16.588Z,16.91
2024-03-15T04:10:42.899Z,16.91
2024-03-15T04:13:09.261Z,16.90
2024-03-15T04:15:35.733Z,16.81
2024-03-15T04:18:02.118Z,16.92
2024-03-15T04:20:29.030Z,16.82
2024-03-15T04:22:56.324Z,16.92
2024-03-15T04:25:22.652Z,16.76
2024-03-15T04:27:49.129Z,16.73
2024-03-15T04:30:15.787Z,16.78
2024-03-15T04:32:42.198Z,16.74
2024-03-15T04:35:08.527Z,16.87
2024-03-15T04:37:34.890Z,16.86
2024-03-15T04:40:01.219Z,16.63
2024-03-15T04:42:27.565Z,16.58
2024-03-15T04:44:54.020Z,16.51
2024-03-15T04:47:20.336Z,16.63
2024-03-15T04:49:46.641Z,16.77
2024-03-15T04:52:13.133Z,16.49
2024-03-15T04:54:39.546Z,16.33
2024-03-15T04:57:05.882Z,16.40
2024-03-15T04:59:32.326Z,16.45
2024-03-15T05:01:58.656Z,16.34
2024-03-15T05:04:24.963Z,16.40
2024-03-15T05:06:51.432Z,16.34
2024-03-15T05:09:17.872Z,16.39
2024-03-15T05:11:44.315Z,16.38
2024-03-15T05:14:10.829Z,16.36
2024-03-15T05:16:37.147Z,16.31
2024-03-15T05:19:03.464Z,16.41
2024-03-15T05:21:29.870Z,16.46
2024-03-15T05:23:56.213Z,16.42
2024-03-15T05:26:22.523Z,16.40
2024-03-15T05:28:48.887Z,16.32
2024-03-15T05:31:15.201Z,16.31
2024-03-15T05:33:41.582Z,16.11
2024-03-15T05:36:08.113Z,16.28
2024-03-15T05:38:34.557Z,16.22
2024-03-15T05:41:00.873Z,16.23
2024-03-15T05:43:27.315Z,16.11
2024-03-15T05:45:53.706Z,16.25
2024-03-15T05:48:20.142Z,16.17
2024-03-15T05:50:46.614Z,16.36
2024-03-15T05:53:12.927Z,16.20
2024-03-15T05:55:39.239Z,16.08
2024-03-15T05:58:05.761Z,15.96
2024-03-15T06:00:32.108Z,16.19
2024-03-15T06:02:58.432Z,16.23
2024-03-15T06:05:24.796Z,16.28
2024-03-15T06:07:53.498Z,16.08
2024-03-15T06:10:20.444Z,15.75
2024-03-15T06:12:46.948Z,15.68
2024-03-15T06:15:13.382Z,15.73
2024-03-15T06:17:39.732Z,15.83
2024-03-15T06:20:06.089Z,16.05
2024-03-15T06:22:32.408Z,15.87
2024-03-15T06:24:58.833Z,16.20
2024-03-15T06:27:25.398Z,16.14
2024-03-15T06:29:51.722Z,16.21
2024-03-15T06:32:18.027Z,15.95
2024-03-15T06:34:44.373Z,16.26
2024-03-15T06:37:10.695Z,16.10
2024-03-15T06:39:37.077Z,16.13
2024-03-15T06:42:03.593Z,16.01
2024-03-15T06:44:29.901Z,16.05
2024-03-15T06:46:56.215Z,16.19
2024-03-15T06:49:22.556Z,16.23
2024-03-15T06:51:49.057Z,16.30
2024-03-15T06:54:15.665Z,16.23
2024-03-15T06:56:42.497Z,16.37
2024-03-15T06:59:08.800Z,16.36
2024-03-15T07:01:35.132Z,16.34
2024-03-15T07:04:01.556Z,16.38
2024-03-15T07:06:27.932Z,16.56
2024-03-15T07:08:54.265Z,16.41
2024-03-15T07:11:20.722Z,16.64
2024-03-15T07:13:47.080Z,16.51
2024-03-15T07:16:13.487Z,16.57
2024-03-15T07:18:39.951Z,16.63
2024-03-15T07:21:06.297Z,16.60
2024-03-15T07:23:32.636Z,16.63
2024-03-15T07:25:59.088Z,16.63
2024-03-15T07:28:25.492Z,16.80
2024-03-15T07:30:51.971Z,16.64
2024-03-15T07:33:18.523Z,16.83
2024-03-15T07:35:44.948Z,16.96
2024-03-15T07:38:11.323Z,17.01
2024-03-15T07:40:37.880Z,17.07
2024-03-15T07:43:04.264Z,17.01
2024-03-15T07:45:30.700Z,17.12
2024-03-15T07:47:57.193Z,17.04
2024-03-15T07:50:23.578Z,16.78
2024-03-15T07:52:49.938Z,16.88
2024-03-15T07:55:16.347Z,16.89
2024-03-15T07:57:43.827Z,17.15
2024-03-15T08:00:10.834Z,17.07
2024-03-15T08:02:37.306Z,17.00
2024-03-15T08:05:03.640Z,17.23
2024-03-15T08:07:29.955Z,17.25
2024-03-15T08:09:56.390Z,17.32
2024-03-15T08:12:22.818Z,17.24
2024-03-15T08:14:49.189Z,17.44
2024-03-15T08:17:15.784Z,17.47
2024-03-15T08:19:42.133Z,17.55
2024-03-15T08:22:08.558Z,17.55
2024-03-15T08:24:35.394Z,17.59
2024-03-15T08:27:01.773Z,17.56
2024-03-15T08:29:28.087Z,17.76
2024-03-15T08:31:54.459Z,17.70
2024-03-15T08:34:20.845Z,17.61
2024-03-15T08:36:47.283Z,17.66
2024-03-15T08:39:14.122Z,17.58
2024-03-15T08:41:40.631Z,17.56
2024-03-15T08:44:06.986Z,17.65
2024-03-15T08:46:33.432Z,17.73
2024-03-15T08:49:00.006Z,17.52
2024-03-15T08:51:26.508Z,17.76
2024-03-15T08:53:52.964Z,17.63
2024-03-15T08:56:19.270Z,17.58
2024-03-15T08:58:45.676Z,17.46
2024-03-15T09:01:12.390Z,17.55
2024-03-15T09:03:39.952Z,17.54
2024-03-15T09:06:06.862Z,17.62
2024-03-15T09:08:33.355Z,17.62
2024-03-15T09:10:59.710Z,17.86
2024-03-15T09:13:26.070Z,17.76
2024-03-15T09:15:52.601Z,17.89
2024-03-15T09:18:19.043Z,17.65
2024-03-15T09:20:45.642Z,17.62
2024-03-15T09:23:12.321Z,17.67
2024-03-15T09:25:38.702Z,17.53
2024-03-15T09:28:05.038Z,17.72
2024-03-15T09:30:31.569Z,17.82
2024-03-15T09:32:58.190Z,17.68
2024-03-15T09:35:24.592Z,17.94
2024-03-15T09:37:51.062Z,17.98
2024-03-15T09:40:17.538Z,17.94
2024-03-15T09:42:43.982Z,18.39
2024-03-15T09:45:10.500Z,18.59
2024-03-15T09:47:36.916Z,18.71
2024-03-15T09:50:03.301Z,18.87
2024-03-15T09:52:29.737Z,18.96
2024-03-15T09:54:56.167Z,19.32
2024-03-15T09:57:22.568Z,19.42
2024-03-15T09:59:48.978Z,19.68
2024-03-15T10:02:15.325Z,19.74
2024-03-15T10:04:41.662Z,19.94
2024-03-15T10:07:08.307Z,20.18
2024-03-15T10:09:34.634Z,20.35
2024-03-15T10:12:00.984Z,20.40
2024-03-15T10:14:27.413Z,20.47
2024-03-15T10:16:54.058Z,20.67
2024-03-15T10:19:20.546Z,20.65
2024-03-15T10:21:47.328Z,20.73
2024-03-15T10:24:13.699Z,20.73
2024-03-15T10:26:40.027Z,20.86
2024-03-15T10:29:06.368Z,20.97
2024-03-15T10:31:32.686Z,20.95
2024-03-15T10:33:59.081Z,20.84
2024-03-15T10:36:25.794Z,20.74
2024-03-15T10:38:52.247Z,20.52
2024-03-15T10:41:18.595Z,20.35
2024-03-15T10:43:45.186Z,20.18
2024-03-15T10:46:11.503Z,20.06
2024-03-15T10:48:37.928Z,20.09
2024-03-15T10:51:04.543Z,20.15
2024-03-15T10:53:30.872Z,20.43
2024-03-15T10:55:57.195Z,20.58
2024-03-15T10:58:23.714Z,20.76
2024-03-15T11:00:50.213Z,20.79
2024-03-15T11:03:17.031Z,20.97
2024-03-15T11:05:43.597Z,21.26
2024-03-15T11:08:09.919Z,21.27
2024-03-15T11:10:36.243Z,21.13
2024-03-15T11:13:02.990Z,20.95
2024-03-15T11:15:29.424Z,21.09
2024-03-15T11:17:55.781Z,20.87
2024-03-15T11:20:22.299Z,20.94
2024-03-15T11:22:48.675Z,20.44
2024-03-15T11:25:15.086Z,20.37
2024-03-15T11:27:41.843Z,20.07
2024-03-15T11:30:08.183Z,20.14
2024-03-15T11:32:34.573Z,20.15
2024-03-15T11:35:00.976Z,19.83
2024-03-15T11:37:27.316Z,19.87
2024-03-15T11:39:53.948Z,19.86
2024-03-15T11:42:20.518Z,19.77
2024-03-15T11:44:46.965Z,19.57
2024-03-15T11:47:13.441Z,19.69
2024-03-15T11:49:39.864Z,19.24
2024-03-15T11:52:06.284Z,19.15
2024-03-15T11:54:32.642Z,19.13
2024-03-15T11:56:59.065Z,19.18
2024-03-15T11:59:25.383Z,18.92
2024-03-15T12:01:51.779Z,19.15
2024-03-15T12:04:18.226Z,19.03
2024-03-15T12:06:44.661Z,18.88
2024-03-15T12:09:11.077Z,18.77
2024-03-15T12:11:38.309Z,19.01
2024-03-15T12:14:04.910Z,18.90
2024-03-15T12:16:31.234Z,18.92
2024-03-15T12:18:57.644Z,18.93
2024-03-15T12:21:24.017Z,18.92
2024-03-15T12:23:50.333Z,18.93
2024-03-15T12:26:16.759Z,18.94
2024-03-15T12:28:43.081Z,18.92
2024-03-15T12:31:09.481Z,18.56
2024-03-15T12:33:36.104Z,18.62
2024-03-15T12:36:02.576Z,18.49
2024-03-15T12:38:28.940Z,18.39
2024-03-15T12:40:55.316Z,18.48
2024-03-15T12:43:21.881Z,18.50
2024-03-15T12:45:48.378Z,18.41
2024-03-15T12:48:15.067Z,18.66
2024-03-15T12:50:42.403Z,18.68
2024-03-15T12:53:09.118Z,18.62
2024-03-15T12:55:35.503Z,18.90
2024-03-15T12:58:01.903Z,19.09
2024-03-15T13:00:28.360Z,19.16
2024-03-15T13:02:56.893Z,19.10
2024-03-15T13:05:23.338Z,19.11
2024-03-15T13:07:49.653Z,19.57
2024-03-15T13:10:16.069Z,19.46
2024-03-15T13:12:42.378Z,19.46
2024-03-15T13:15:08.704Z,19.44
2024-03-15T13:17:35.160Z,19.61
2024-03-15T13:20:01.607Z,19.89
2024-03-15T13:22:27.947Z,19.85
2024-03-15T13:24:54.387Z,19.72
2024-03-15T13:27:21.343Z,19.77
2024-03-15T13:29:47.713Z,19.89
2024-03-15T13:32:14.176Z,20.04
2024-03-15T13:34:40.527Z,20.03
2024-03-15T13:37:09.064Z,19.80
2024-03-15T13:39:35.562Z,20.00
2024-03-15T13:42:02.173Z,19.93
2024-03-15T13:44:28.518Z,19.83
2024-03-15T13:46:54.947Z,19.85
2024-03-15T13:49:21.313Z,19.85
2024-03-15T13:51:47.845Z,20.34
2024-03-15T13:54:14.230Z,20.15
2024-03-15T13:56:40.576Z,20.36
2024-03-15T13:59:06.909Z,20.67
2024-03-15T14:01:33.474Z,20.71
2024-03-15T14:03:59.928Z,20.68
2024-03-15T14:06:26.295Z,20.78
2024-03-15T14:08:52.768Z,20.96
2024-03-15T14:11:19.131Z,20.87
2024-03-15T14:13:45.443Z,21.07
2024-03-15T14:16:12.288Z,21.30
2024-03-15T14:18:38.687Z,21.88
2024-03-15T14:21:05.023Z,22.09
2024-03-15T14:23:31.400Z,22.63
2024-03-15T14:25:57.715Z,23.02
2024-03-15T14:28:24.048Z,23.31
2024-03-15T14:30:51.614Z,23.42
2024-03-15T14:33:19.250Z,23.51
2024-03-15T14:35:45.614Z,23.65
2024-03-15T14:38:12.035Z,23.73
2024-03-15T14:40:38.365Z,24.19
2024-03-15T14:43:04.927Z,24.71
2024-03-15T14:45:31.482Z,24.82
2024-03-15T14:48:04.280Z,25.20
2024-03-15T14:50:36.281Z,25.38
2024-03-15T14:53:02.586Z,25.35
2024-03-15T14:55:28.895Z,25.13
2024-03-15T14:57:55.274Z,24.18
2024-03-15T15:00:21.647Z,23.97
2024-03-15T15:02:47.967Z,23.44
2024-03-15T15:05:14.454Z,22.97
2024-03-15T15:07:40.793Z,22.79
2024-03-15T15:10:07.288Z,22.65
2024-03-15T15:12:33.911Z,22.51
2024-03-15T15:15:00.307Z,22.36
2024-03-15T15:17:26.616Z,22.55
2024-03-15T15:19:53.343Z,22.46
2024-03-15T15:22:19.647Z,22.56
2024-03-15T15:24:45.992Z,22.68
2024-03-15T15:27:12.427Z,22.68
2024-03-15T15:29:38.735Z,22.88
2024-03-15T15:32:05.058Z,22.96
2024-03-15T15:34:31.586Z,22.88
2024-03-15T15:36:58.010Z,22.68
2024-03-15T15:39:24.358Z,22.40
2024-03-15T15:41:50.830Z,22.28
2024-03-15T15:44:17.158Z,22.20
2024-03-15T15:46:43.560Z,21.98
2024-03-15T15:49:10.044Z,21.85
2024-03-15T15:51:36.379Z,21.47
2024-03-15T15:54:02.947Z,21.14
2024-03-15T15:56:29.448Z,20.95
2024-03-15T15:58:55.756Z,21.02
2024-03-15T16:01:22.252Z,20.93
2024-03-15T16:03:48.770Z,20.84
2024-03-15T16:06:15.118Z,20.76
2024-03-15T16:08:41.421Z,20.43
2024-03-15T16:11:07.955Z,20.41
2024-03-15T16:13:34.326Z,20.27
2024-03-15T16:16:00.728Z,20.23
2024-03-15T16:18:27.172Z,20.17
2024-03-15T16:20:53.493Z,20.19
2024-03-15T16:23:19.813Z,20.15
2024-03-15T16:25:46.354Z,20.25
2024-03-15T16:28:12.711Z,20.19
2024-03-15T16:30:39.048Z,20.19
2024-03-15T16:33:08.334Z,19.91
2024-03-15T16:35:36.377Z,19.84
2024-03-15T16:38:02.674Z,19.93
2024-03-15T16:40:29.082Z,20.06
2024-03-15T16:42:55.440Z,19.96
2024-03-15T16:45:21.853Z,19.68
2024-03-15T16:47:48.347Z,19.78
2024-03-15T16:50:14.644Z,19.75
2024-03-15T16:52:40.950Z,19.74
2024-03-15T16:55:07.336Z,19.60
2024-03-15T16:57:33.749Z,19.60
2024-03-15T17:00:00.071Z,19.33
2024-03-15T17:02:26.639Z,19.50
2024-03-15T17:04:52.946Z,19.54
2024-03-15T17:07:19.335Z,19.61
2024-03-15T17:09:45.748Z,19.49
2024-03-15T17:12:12.082Z,19.30
2024-03-15T17:14:38.415Z,19.17
2024-03-15T17:17:04.886Z,19.15
2024-03-15T17:19:31.229Z,19.07
2024-03-15T17:21:57.539Z,18.99
2024-03-15T17:24:24.060Z,18.78
2024-03-15T17:26:50.401Z,18.89
2024-03-15T17:29:16.702Z,18.83
2024-03-15T17:31:43.275Z,18.61
2024-03-15T17:34:09.646Z,18.22
2024-03-15T17:36:36.080Z,18.38
2024-03-15T17:39:02.523Z,17.87
2024-03-15T17:41:28.985Z,17.98
2024-03-15T17:43:55.391Z,18.13
2024-03-15T17:46:21.864Z,17.90
2024-03-15T17:48:48.310Z,17.83
2024-03-15T17:51:14.648Z,18.04
2024-03-15T17:53:40.986Z,17.91
2024-03-15T17:56:07.316Z,17.93
2024-03-15T17:58:33.621Z,17.93
2024-03-15T18:01:00.103Z,18.13
2024-03-15T18:03:26.519Z,18.17
2024-03-15T18:05:52.889Z,18.15
2024-03-15T18:08:19.233Z,17.88
2024-03-15T18:10:45.548Z,18.07
2024-03-15T18:13:11.916Z,18.03
2024-03-15T18:15:38.350Z,17.99
2024-03-15T18:18:04.729Z,17.94
2024-03-15T18:20:31.111Z,17.85
2024-03-15T18:22:57.542Z,17.74
2024-03-15T18:25:23.837Z,17.77
2024-03-15T18:27:50.157Z,17.72
2024-03-15T18:30:16.581Z,17.65
2024-03-15T18:32:42.967Z,17.60
2024-03-15T18:35:09.322Z,17.68
2024-03-15T18:37:35.649Z,17.48
2024-03-15T18:40:02.149Z,17.48
2024-03-15T18:42:28.638Z,17.46
2024-03-15T18:44:55.098Z,17.46
2024-03-15T18:47:21.441Z,17.42
2024-03-15T18:49:47.756Z,17.49
2024-03-15T18:52:14.082Z,17.36
2024-03-15T18:54:40.446Z,17.34
2024-03-15T18:57:06.773Z,17.33
2024-03-15T18:59:33.289Z,17.27
2024-03-15T19:01:59.610Z,17.26
2024-03-15T19:04:25.939Z,17.31
2024-03-15T19:06:52.340Z,17.35
2024-03-15T19:09:18.721Z,17.37
2024-03-15T19:11:45.100Z,17.48
2024-03-15T19:14:11.521Z,17.68
2024-03-15T19:16:37.844Z,17.57
2024-03-15T19:19:04.213Z,17.48
2024-03-15T19:21:30.640Z,17.36
2024-03-15T19:23:56.948Z,17.58
2024-03-15T19:26:23.255Z,17.48
2024-03-15T19:28:49.649Z,17.19
2024-03-15T19:31:15.955Z,17.45
2024-03-15T19:33:42.281Z,17.43
2024-03-15T19:36:08.730Z,17.59
2024-03-15T19:38:35.033Z,17.26
2024-03-15T19:41:01.333Z,17.53
2024-03-15T19:43:27.645Z,17.33
2024-03-15T19:45:54.031Z,17.34
2024-03-15T19:48:20.412Z,17.40
2024-03-15T19:50:46.854Z,17.62
2024-03-15T19:53:13.179Z,17.27
2024-03-15T19:55:39.701Z,17.16
2024-03-15T19:58:06.273Z,17.25
2024-03-15T20:00:32.700Z,17.22
2024-03-15T20:02:59.046Z,17.33
2024-03-15T20:05:25.483Z,17.10
2024-03-15T20:07:51.791Z,17.02
2024-03-15T20:10:18.435Z,16.98
2024-03-15T20:12:44.932Z,16.85
2024-03-15T20:15:11.244Z,16.84
2024-03-15T20:17:37.715Z,17.07
2024-03-15T20:20:04.077Z,17.05
2024-03-15T20:22:30.385Z,17.02
2024-03-15T20:24:56.712Z,16.99
2024-03-15T20:27:23.139Z,17.15
2024-03-15T20:29:49.510Z,17.37
2024-03-15T20:32:15.816Z,17.23
2024-03-15T20:34:42.309Z,17.08
2024-03-15T20:37:08.705Z,16.99
2024-03-15T20:39:35.173Z,17.04
2024-03-15T20:42:01.579Z,17.05
2024-03-15T20:44:27.892Z,17.05
2024-03-15T20:46:54.198Z,17.08
2024-03-15T20:49:22.296Z,17.08
2024-03-15T20:51:48.651Z,16.97
2024-03-15T20:54:14.968Z,17.02
2024-03-15T20:56:41.357Z,16.97
2024-03-15T20:59:07.663Z,16.98
2024-03-15T21:01:34.086Z,17.11
2024-03-15T21:04:00.605Z,15.75
2024-03-15T21:06:27.242Z,15.98
2024-03-15T21:08:53.747Z,15.80
2024-03-15T21:11:20.447Z,15.50
2024-03-15T21:13:46.840Z,15.73
2024-03-15T21:16:13.207Z,15.98
2024-03-15T21:18:39.676Z,15.94
2024-03-15T21:21:06.097Z,16.00
2024-03-15T21:23:32.409Z,16.11
2024-03-15T21:25:58.738Z,16.14
2024-03-15T21:28:25.103Z,16.26
2024-03-15T21:30:51.492Z,16.30
2024-03-15T21:33:17.837Z,16.18
2024-03-15T21:35:44.167Z,16.26
2024-03-15T21:38:10.544Z,16.30
2024-03-15T21:40:36.968Z,16.41
2024-03-15T21:43:03.302Z,16.23
2024-03-15T21:45:29.673Z,16.17
2024-03-15T21:47:56.055Z,15.85
2024-03-15T21:50:22.375Z,15.78
2024-03-15T21:52:48.686Z,15.14
2024-03-15T21:55:15.976Z,15.48
2024-03-15T21:57:43.119Z,15.81
2024-03-15T22:00:09.467Z,15.67
2024-03-15T22:02:35.885Z,15.71
2024-03-15T22:05:02.203Z,15.93
2024-03-15T22:07:28.503Z,15.79
2024-03-15T22:09:55.006Z,15.91
2024-03-15T22:12:21.440Z,15.97
2024-03-15T22:14:47.815Z,15.99
2024-03-15T22:17:14.345Z,16.07
2024-03-15T22:19:40.719Z,16.10
2024-03-15T22:22:07.425Z,16.12
2024-03-15T22:24:37.761Z,16.12
2024-03-15T22:27:06.005Z,16.17
2024-03-15T22:29:32.322Z,16.15
2024-03-15T22:31:58.647Z,16.29
2024-03-15T22:34:24.953Z,16.21
2024-03-15T22:36:51.284Z,16.18
2024-03-15T22:39:17.733Z,16.33
2024-03-15T22:41:44.077Z,16.23
2024-03-15T22:44:10.382Z,16.23
2024-03-15T22:46:36.710Z,16.14
2024-03-15T22:49:03.058Z,16.19
2024-03-15T22:51:29.397Z,16.20
2024-03-15T22:53:55.721Z,16.12
2024-03-15T22:56:22.029Z,16.04
2024-03-15T22:58:48.327Z,16.14
2024-03-15T23:01:15.006Z,16.23
2024-03-15T23:03:41.379Z,16.14
2024-03-15T23:06:07.725Z,16.09
2024-03-15T23:08:34.077Z,16.12
2024-03-15T23:11:00.481Z,16.11
2024-03-15T23:13:26.817Z,16.30
2024-03-15T23:15:53.396Z,16.18
2024-03-15T23:18:19.721Z,16.05
2024-03-15T23:20:46.023Z,15.75
2024-03-15T23:23:12.486Z,15.83
2024-03-15T23:25:38.807Z,15.96
2024-03-15T23:28:05.188Z,15.92
2024-03-15T23:30:31.888Z,15.89
2024-03-15T23:32:58.275Z,16.11
2024-03-15T23:35:24.648Z,16.13
2024-03-15T23:37:51.178Z,16.13
2024-03-15T23:40:17.571Z,15.74
2024-03-15T23:42:44.030Z,15.86
2024-03-15T23:45:10.428Z,15.43
2024-03-15T23:47:36.973Z,15.52
2024-03-15T23:50:03.459Z,15.35
2024-03-15T23:52:29.897Z,15.44
2024-03-15T23:54:56.262Z,15.51
2024-03-15T23:57:22.634Z,15.57
2024-03-15T23:59:48.994Z,15.49
